sensor_id;sensor_type;location;lat;lon;timestamp;P1;durP1;ratioP1;P2;durP2;ratioP2
57790;SDS011;43621;51.798;21.588;2023-04-30T00:03:28;26.70;;;14.80;;
57790;SDS011;43621;51.798;21.588;2023-04-30T00:07:29;22.50;;;13.40;;
57790;SDS011;43621;51.798;21.588;2023-04-30T00:11:31;28.10;;;15.20;;
57790;SDS011;43621;51.798;21.588;2023-04-30T00:15:32;26.90;;;14.50;;
57790;SDS011;43621;51.798;21.588;2023-04-30T00:19:33;23.80;;;14.60;;
57790;SDS011;43621;51.798;21.588;2023-04-30T00:23:34;20.90;;;13.10;;
57790;SDS011;43621;51.798;21.588;2023-04-30T00:27:35;22.70;;;13.80;;
57790;SDS011;43621;51.798;21.588;2023-04-30T00:31:37;32.70;;;17.30;;
57790;SDS011;43621;51.798;21.588;2023-04-30T00:35:38;27.60;;;15.40;;
57790;SDS011;43621;51.798;21.588;2023-04-30T00:39:39;24.40;;;14.40;;
57790;SDS011;43621;51.798;21.588;2023-04-30T00:43:40;20.60;;;13.00;;
57790;SDS011;43621;51.798;21.588;2023-04-30T00:47:41;43.30;;;27.10;;
57790;SDS011;43621;51.798;21.588;2023-04-30T00:51:42;59.50;;;32.60;;
57790;SDS011;43621;51.798;21.588;2023-04-30T00:55:44;38.00;;;23.10;;
57790;SDS011;43621;51.798;21.588;2023-04-30T00:59:45;35.10;;;20.60;;
57790;SDS011;43621;51.798;21.588;2023-04-30T01:03:47;29.80;;;16.60;;
57790;SDS011;43621;51.798;21.588;2023-04-30T01:07:48;23.10;;;14.90;;
57790;SDS011;43621;51.798;21.588;2023-04-30T01:20:27;23.90;;;14.70;;
57790;SDS011;43621;51.798;21.588;2023-04-30T01:24:39;26.20;;;15.00;;
57790;SDS011;43621;51.798;21.588;2023-04-30T01:28:50;28.10;;;16.20;;
57790;SDS011;43621;51.798;21.588;2023-04-30T01:32:53;33.10;;;17.80;;
57790;SDS011;43621;51.798;21.588;2023-04-30T01:41:25;29.00;;;17.20;;
57790;SDS011;43621;51.798;21.588;2023-04-30T01:53:50;35.10;;;16.50;;
57790;SDS011;43621;51.798;21.588;2023-04-30T01:57:57;23.60;;;16.00;;
57790;SDS011;43621;51.798;21.588;2023-04-30T02:02:01;25.80;;;14.20;;
57790;SDS011;43621;51.798;21.588;2023-04-30T02:06:02;27.20;;;13.60;;
57790;SDS011;43621;51.798;21.588;2023-04-30T02:10:04;25.30;;;15.50;;
57790;SDS011;43621;51.798;21.588;2023-04-30T02:14:06;25.10;;;15.70;;
57790;SDS011;43621;51.798;21.588;2023-04-30T02:18:07;24.70;;;15.10;;
57790;SDS011;43621;51.798;21.588;2023-04-30T02:22:08;23.60;;;13.80;;
57790;SDS011;43621;51.798;21.588;2023-04-30T02:26:09;32.80;;;15.40;;
57790;SDS011;43621;51.798;21.588;2023-04-30T02:30:10;23.90;;;14.70;;
57790;SDS011;43621;51.798;21.588;2023-04-30T02:34:11;26.60;;;15.70;;
57790;SDS011;43621;51.798;21.588;2023-04-30T02:38:12;28.00;;;16.80;;
57790;SDS011;43621;51.798;21.588;2023-04-30T02:42:13;30.20;;;16.20;;
57790;SDS011;43621;51.798;21.588;2023-04-30T02:46:14;28.20;;;14.70;;
57790;SDS011;43621;51.798;21.588;2023-04-30T02:50:16;32.60;;;17.40;;
57790;SDS011;43621;51.798;21.588;2023-04-30T02:54:17;27.90;;;16.10;;
57790;SDS011;43621;51.798;21.588;2023-04-30T02:58:18;27.60;;;15.50;;
57790;SDS011;43621;51.798;21.588;2023-04-30T03:02:19;24.60;;;16.30;;
57790;SDS011;43621;51.798;21.588;2023-04-30T03:06:23;31.50;;;16.30;;
57790;SDS011;43621;51.798;21.588;2023-04-30T03:10:24;26.60;;;15.80;;
57790;SDS011;43621;51.798;21.588;2023-04-30T03:14:25;29.40;;;18.80;;
57790;SDS011;43621;51.798;21.588;2023-04-30T03:18:27;28.50;;;17.90;;
57790;SDS011;43621;51.798;21.588;2023-04-30T03:22:29;32.40;;;19.10;;
57790;SDS011;43621;51.798;21.588;2023-04-30T03:26:30;30.60;;;19.20;;
57790;SDS011;43621;51.798;21.588;2023-04-30T03:30:31;36.10;;;20.80;;
57790;SDS011;43621;51.798;21.588;2023-04-30T03:34:32;29.20;;;17.70;;
57790;SDS011;43621;51.798;21.588;2023-04-30T03:38:33;28.90;;;19.40;;
57790;SDS011;43621;51.798;21.588;2023-04-30T03:42:34;29.30;;;18.30;;
57790;SDS011;43621;51.798;21.588;2023-04-30T03:46:35;36.90;;;18.20;;
57790;SDS011;43621;51.798;21.588;2023-04-30T03:50:36;29.10;;;18.40;;
57790;SDS011;43621;51.798;21.588;2023-04-30T03:54:37;29.20;;;18.40;;
57790;SDS011;43621;51.798;21.588;2023-04-30T03:58:38;27.70;;;17.80;;
57790;SDS011;43621;51.798;21.588;2023-04-30T04:02:40;29.50;;;17.10;;
57790;SDS011;43621;51.798;21.588;2023-04-30T04:06:41;26.50;;;16.60;;
57790;SDS011;43621;51.798;21.588;2023-04-30T04:10:42;27.00;;;17.60;;
57790;SDS011;43621;51.798;21.588;2023-04-30T04:14:43;35.50;;;18.90;;
57790;SDS011;43621;51.798;21.588;2023-04-30T04:18:45;26.50;;;17.90;;
57790;SDS011;43621;51.798;21.588;2023-04-30T04:22:46;25.60;;;17.60;;
57790;SDS011;43621;51.798;21.588;2023-04-30T04:26:47;29.30;;;17.40;;
57790;SDS011;43621;51.798;21.588;2023-04-30T04:30:48;28.60;;;17.80;;
57790;SDS011;43621;51.798;21.588;2023-04-30T04:34:49;27.50;;;19.20;;
57790;SDS011;43621;51.798;21.588;2023-04-30T04:38:50;29.30;;;18.70;;
57790;SDS011;43621;51.798;21.588;2023-04-30T04:42:52;34.30;;;19.60;;
57790;SDS011;43621;51.798;21.588;2023-04-30T04:46:53;27.00;;;18.30;;
57790;SDS011;43621;51.798;21.588;2023-04-30T04:50:56;28.20;;;18.20;;
57790;SDS011;43621;51.798;21.588;2023-04-30T04:54:57;28.70;;;19.10;;
57790;SDS011;43621;51.798;21.588;2023-04-30T04:58:58;28.30;;;18.10;;
57790;SDS011;43621;51.798;21.588;2023-04-30T05:02:59;23.00;;;16.70;;
57790;SDS011;43621;51.798;21.588;2023-04-30T05:07:00;25.40;;;18.50;;
57790;SDS011;43621;51.798;21.588;2023-04-30T05:11:02;25.10;;;18.50;;
57790;SDS011;43621;51.798;21.588;2023-04-30T05:15:03;28.90;;;18.30;;
57790;SDS011;43621;51.798;21.588;2023-04-30T05:19:04;29.60;;;18.10;;
57790;SDS011;43621;51.798;21.588;2023-04-30T05:23:05;24.20;;;18.00;;
57790;SDS011;43621;51.798;21.588;2023-04-30T05:27:06;26.80;;;19.10;;
57790;SDS011;43621;51.798;21.588;2023-04-30T05:31:08;22.70;;;17.60;;
57790;SDS011;43621;51.798;21.588;2023-04-30T05:35:09;26.20;;;17.10;;
57790;SDS011;43621;51.798;21.588;2023-04-30T05:39:10;26.00;;;18.00;;
57790;SDS011;43621;51.798;21.588;2023-04-30T05:43:11;25.70;;;17.40;;
57790;SDS011;43621;51.798;21.588;2023-04-30T05:47:12;28.20;;;18.40;;
57790;SDS011;43621;51.798;21.588;2023-04-30T05:51:14;24.10;;;16.20;;
57790;SDS011;43621;51.798;21.588;2023-04-30T05:55:15;22.30;;;16.40;;
57790;SDS011;43621;51.798;21.588;2023-04-30T05:59:16;17.50;;;14.00;;
57790;SDS011;43621;51.798;21.588;2023-04-30T06:03:18;18.40;;;13.10;;
57790;SDS011;43621;51.798;21.588;2023-04-30T06:07:19;16.50;;;12.70;;
57790;SDS011;43621;51.798;21.588;2023-04-30T06:11:21;17.20;;;13.00;;
57790;SDS011;43621;51.798;21.588;2023-04-30T06:15:22;21.00;;;13.00;;
57790;SDS011;43621;51.798;21.588;2023-04-30T06:19:23;19.70;;;12.80;;
57790;SDS011;43621;51.798;21.588;2023-04-30T06:23:24;18.20;;;11.90;;
57790;SDS011;43621;51.798;21.588;2023-04-30T06:27:25;16.40;;;11.70;;
57790;SDS011;43621;51.798;21.588;2023-04-30T06:31:27;14.50;;;10.20;;
57790;SDS011;43621;51.798;21.588;2023-04-30T06:35:28;16.60;;;11.50;;
57790;SDS011;43621;51.798;21.588;2023-04-30T06:39:29;18.60;;;10.90;;
57790;SDS011;43621;51.798;21.588;2023-04-30T06:43:31;15.10;;;10.50;;
57790;SDS011;43621;51.798;21.588;2023-04-30T06:47:32;18.50;;;10.40;;
57790;SDS011;43621;51.798;21.588;2023-04-30T06:51:34;14.70;;;10.00;;
57790;SDS011;43621;51.798;21.588;2023-04-30T06:55:35;15.00;;;10.20;;
57790;SDS011;43621;51.798;21.588;2023-04-30T06:59:36;15.90;;;9.60;;
57790;SDS011;43621;51.798;21.588;2023-04-30T07:03:39;13.80;;;8.60;;
57790;SDS011;43621;51.798;21.588;2023-04-30T07:07:40;11.50;;;7.20;;
57790;SDS011;43621;51.798;21.588;2023-04-30T07:11:41;11.20;;;7.50;;
57790;SDS011;43621;51.798;21.588;2023-04-30T07:15:42;15.90;;;9.40;;
57790;SDS011;43621;51.798;21.588;2023-04-30T07:19:43;9.90;;;7.60;;
57790;SDS011;43621;51.798;21.588;2023-04-30T07:23:45;18.50;;;10.20;;
57790;SDS011;43621;51.798;21.588;2023-04-30T07:27:46;10.00;;;8.00;;
57790;SDS011;43621;51.798;21.588;2023-04-30T07:31:47;26.60;;;17.80;;
57790;SDS011;43621;51.798;21.588;2023-04-30T07:35:48;13.80;;;9.10;;
57790;SDS011;43621;51.798;21.588;2023-04-30T07:39:49;10.00;;;6.40;;
57790;SDS011;43621;51.798;21.588;2023-04-30T07:43:50;6.70;;;5.50;;
57790;SDS011;43621;51.798;21.588;2023-04-30T07:47:51;7.30;;;5.00;;
57790;SDS011;43621;51.798;21.588;2023-04-30T07:51:52;8.00;;;5.70;;
57790;SDS011;43621;51.798;21.588;2023-04-30T07:55:53;7.50;;;5.10;;
57790;SDS011;43621;51.798;21.588;2023-04-30T07:59:54;5.30;;;4.00;;
57790;SDS011;43621;51.798;21.588;2023-04-30T08:03:55;5.80;;;4.30;;
57790;SDS011;43621;51.798;21.588;2023-04-30T08:07:57;5.70;;;4.40;;
57790;SDS011;43621;51.798;21.588;2023-04-30T08:11:58;7.40;;;4.50;;
57790;SDS011;43621;51.798;21.588;2023-04-30T08:15:59;5.00;;;4.30;;
57790;SDS011;43621;51.798;21.588;2023-04-30T08:20:00;5.50;;;3.90;;
57790;SDS011;43621;51.798;21.588;2023-04-30T08:24:03;6.20;;;4.30;;
57790;SDS011;43621;51.798;21.588;2023-04-30T08:28:05;5.60;;;4.10;;
57790;SDS011;43621;51.798;21.588;2023-04-30T08:32:06;7.60;;;4.80;;
57790;SDS011;43621;51.798;21.588;2023-04-30T08:36:08;7.10;;;3.90;;
57790;SDS011;43621;51.798;21.588;2023-04-30T08:40:10;5.10;;;4.40;;
57790;SDS011;43621;51.798;21.588;2023-04-30T08:44:11;4.60;;;4.20;;
57790;SDS011;43621;51.798;21.588;2023-04-30T08:48:13;5.70;;;5.10;;
57790;SDS011;43621;51.798;21.588;2023-04-30T08:52:16;7.00;;;5.80;;
57790;SDS011;43621;51.798;21.588;2023-04-30T08:56:18;6.70;;;6.10;;
57790;SDS011;43621;51.798;21.588;2023-04-30T09:00:20;9.10;;;8.20;;
57790;SDS011;43621;51.798;21.588;2023-04-30T09:04:22;6.60;;;5.90;;
57790;SDS011;43621;51.798;21.588;2023-04-30T09:13:06;7.40;;;6.70;;
57790;SDS011;43621;51.798;21.588;2023-04-30T09:17:08;6.50;;;5.60;;
57790;SDS011;43621;51.798;21.588;2023-04-30T09:21:09;7.00;;;6.30;;
57790;SDS011;43621;51.798;21.588;2023-04-30T09:25:10;7.30;;;6.00;;
57790;SDS011;43621;51.798;21.588;2023-04-30T09:29:12;9.70;;;6.90;;
57790;SDS011;43621;51.798;21.588;2023-04-30T09:33:13;6.80;;;5.90;;
57790;SDS011;43621;51.798;21.588;2023-04-30T09:37:14;6.10;;;5.40;;
57790;SDS011;43621;51.798;21.588;2023-04-30T09:41:25;7.10;;;5.00;;
57790;SDS011;43621;51.798;21.588;2023-04-30T09:45:46;5.90;;;5.20;;
57790;SDS011;43621;51.798;21.588;2023-04-30T09:49:51;5.20;;;4.30;;
57790;SDS011;43621;51.798;21.588;2023-04-30T09:53:52;4.40;;;3.70;;
57790;SDS011;43621;51.798;21.588;2023-04-30T09:57:54;10.90;;;4.10;;
57790;SDS011;43621;51.798;21.588;2023-04-30T10:01:59;4.60;;;3.70;;
57790;SDS011;43621;51.798;21.588;2023-04-30T10:06:01;7.50;;;3.90;;
57790;SDS011;43621;51.798;21.588;2023-04-30T10:10:06;4.90;;;3.50;;
57790;SDS011;43621;51.798;21.588;2023-04-30T10:14:11;4.50;;;3.40;;
57790;SDS011;43621;51.798;21.588;2023-04-30T10:18:34;4.20;;;3.80;;
57790;SDS011;43621;51.798;21.588;2023-04-30T10:22:37;7.80;;;5.60;;
57790;SDS011;43621;51.798;21.588;2023-04-30T10:26:38;5.50;;;5.00;;
57790;SDS011;43621;51.798;21.588;2023-04-30T10:30:41;6.60;;;6.10;;
57790;SDS011;43621;51.798;21.588;2023-04-30T10:39:17;9.40;;;8.70;;
57790;SDS011;43621;51.798;21.588;2023-04-30T10:43:22;8.40;;;8.00;;
57790;SDS011;43621;51.798;21.588;2023-04-30T10:47:27;9.20;;;8.60;;
57790;SDS011;43621;51.798;21.588;2023-04-30T10:51:49;8.70;;;7.80;;
57790;SDS011;43621;51.798;21.588;2023-04-30T10:55:52;7.00;;;5.20;;
57790;SDS011;43621;51.798;21.588;2023-04-30T11:04:08;4.40;;;3.20;;
57790;SDS011;43621;51.798;21.588;2023-04-30T11:08:10;3.60;;;2.70;;
57790;SDS011;43621;51.798;21.588;2023-04-30T11:12:15;4.70;;;2.60;;
57790;SDS011;43621;51.798;21.588;2023-04-30T11:16:25;6.70;;;2.80;;
57790;SDS011;43621;51.798;21.588;2023-04-30T11:20:30;7.20;;;1.90;;
57790;SDS011;43621;51.798;21.588;2023-04-30T11:28:52;4.70;;;2.00;;
57790;SDS011;43621;51.798;21.588;2023-04-30T11:32:58;3.80;;;2.00;;
57790;SDS011;43621;51.798;21.588;2023-04-30T11:36:59;3.40;;;1.90;;
57790;SDS011;43621;51.798;21.588;2023-04-30T11:41:03;4.50;;;2.00;;
57790;SDS011;43621;51.798;21.588;2023-04-30T11:45:11;5.80;;;1.90;;
57790;SDS011;43621;51.798;21.588;2023-04-30T11:49:19;5.80;;;2.10;;
57790;SDS011;43621;51.798;21.588;2023-04-30T11:53:25;5.60;;;2.30;;
57790;SDS011;43621;51.798;21.588;2023-04-30T11:57:33;3.80;;;2.30;;
57790;SDS011;43621;51.798;21.588;2023-04-30T12:01:35;6.80;;;2.20;;
57790;SDS011;43621;51.798;21.588;2023-04-30T12:05:36;3.10;;;2.10;;
57790;SDS011;43621;51.798;21.588;2023-04-30T12:09:50;7.40;;;2.30;;
57790;SDS011;43621;51.798;21.588;2023-04-30T12:13:53;6.60;;;2.70;;
57790;SDS011;43621;51.798;21.588;2023-04-30T12:17:57;3.80;;;2.10;;
57790;SDS011;43621;51.798;21.588;2023-04-30T12:21:59;4.20;;;2.00;;
57790;SDS011;43621;51.798;21.588;2023-04-30T12:26:00;5.20;;;2.00;;
57790;SDS011;43621;51.798;21.588;2023-04-30T12:30:02;3.00;;;1.90;;
57790;SDS011;43621;51.798;21.588;2023-04-30T12:34:09;6.10;;;2.30;;
57790;SDS011;43621;51.798;21.588;2023-04-30T12:38:12;4.80;;;2.20;;
57790;SDS011;43621;51.798;21.588;2023-04-30T12:42:19;6.50;;;2.30;;
57790;SDS011;43621;51.798;21.588;2023-04-30T12:46:24;7.40;;;2.00;;
57790;SDS011;43621;51.798;21.588;2023-04-30T12:50:27;7.00;;;1.80;;
57790;SDS011;43621;51.798;21.588;2023-04-30T12:54:29;3.70;;;2.10;;
57790;SDS011;43621;51.798;21.588;2023-04-30T12:58:32;5.70;;;1.60;;
57790;SDS011;43621;51.798;21.588;2023-04-30T13:02:33;2.20;;;1.20;;
57790;SDS011;43621;51.798;21.588;2023-04-30T13:06:34;2.90;;;1.30;;
57790;SDS011;43621;51.798;21.588;2023-04-30T13:10:36;3.80;;;1.60;;
57790;SDS011;43621;51.798;21.588;2023-04-30T13:14:37;3.60;;;1.40;;
57790;SDS011;43621;51.798;21.588;2023-04-30T13:18:38;4.30;;;1.60;;
57790;SDS011;43621;51.798;21.588;2023-04-30T13:22:39;4.20;;;1.80;;
57790;SDS011;43621;51.798;21.588;2023-04-30T13:26:40;7.10;;;1.70;;
57790;SDS011;43621;51.798;21.588;2023-04-30T13:30:41;8.50;;;2.30;;
57790;SDS011;43621;51.798;21.588;2023-04-30T13:34:43;4.00;;;1.30;;
57790;SDS011;43621;51.798;21.588;2023-04-30T13:38:44;6.70;;;2.00;;
57790;SDS011;43621;51.798;21.588;2023-04-30T13:42:46;5.30;;;1.80;;
57790;SDS011;43621;51.798;21.588;2023-04-30T13:46:48;6.60;;;1.90;;
57790;SDS011;43621;51.798;21.588;2023-04-30T13:50:53;4.90;;;1.90;;
57790;SDS011;43621;51.798;21.588;2023-04-30T13:54:54;5.30;;;2.20;;
57790;SDS011;43621;51.798;21.588;2023-04-30T13:58:57;6.40;;;1.50;;
57790;SDS011;43621;51.798;21.588;2023-04-30T14:02:58;3.20;;;1.50;;
57790;SDS011;43621;51.798;21.588;2023-04-30T14:07:00;6.40;;;1.50;;
57790;SDS011;43621;51.798;21.588;2023-04-30T14:11:02;5.90;;;2.20;;
57790;SDS011;43621;51.798;21.588;2023-04-30T14:15:04;2.80;;;1.70;;
57790;SDS011;43621;51.798;21.588;2023-04-30T14:19:05;3.40;;;1.50;;
57790;SDS011;43621;51.798;21.588;2023-04-30T14:23:07;3.20;;;1.40;;
57790;SDS011;43621;51.798;21.588;2023-04-30T14:27:08;6.60;;;1.60;;
57790;SDS011;43621;51.798;21.588;2023-04-30T14:31:09;3.90;;;2.10;;
57790;SDS011;43621;51.798;21.588;2023-04-30T14:35:10;5.00;;;1.90;;
57790;SDS011;43621;51.798;21.588;2023-04-30T14:39:11;10.30;;;1.90;;
57790;SDS011;43621;51.798;21.588;2023-04-30T14:43:13;8.60;;;4.40;;
57790;SDS011;43621;51.798;21.588;2023-04-30T14:47:14;3.60;;;1.70;;
57790;SDS011;43621;51.798;21.588;2023-04-30T14:51:15;7.70;;;2.10;;
57790;SDS011;43621;51.798;21.588;2023-04-30T14:55:17;7.00;;;3.10;;
57790;SDS011;43621;51.798;21.588;2023-04-30T14:59:18;3.50;;;1.60;;
57790;SDS011;43621;51.798;21.588;2023-04-30T15:03:19;4.30;;;1.70;;
57790;SDS011;43621;51.798;21.588;2023-04-30T15:07:21;5.30;;;2.00;;
57790;SDS011;43621;51.798;21.588;2023-04-30T15:11:22;3.40;;;1.60;;
57790;SDS011;43621;51.798;21.588;2023-04-30T15:15:24;3.00;;;1.90;;
57790;SDS011;43621;51.798;21.588;2023-04-30T15:19:28;2.10;;;1.30;;
57790;SDS011;43621;51.798;21.588;2023-04-30T15:23:30;3.10;;;1.50;;
57790;SDS011;43621;51.798;21.588;2023-04-30T15:27:31;4.20;;;1.80;;
57790;SDS011;43621;51.798;21.588;2023-04-30T15:31:33;4.40;;;1.70;;
57790;SDS011;43621;51.798;21.588;2023-04-30T15:35:35;6.10;;;1.70;;
57790;SDS011;43621;51.798;21.588;2023-04-30T15:39:36;7.40;;;1.60;;
57790;SDS011;43621;51.798;21.588;2023-04-30T15:43:37;2.90;;;1.30;;
57790;SDS011;43621;51.798;21.588;2023-04-30T15:47:39;4.60;;;1.40;;
57790;SDS011;43621;51.798;21.588;2023-04-30T15:51:41;4.10;;;1.20;;
57790;SDS011;43621;51.798;21.588;2023-04-30T15:55:42;6.40;;;1.70;;
57790;SDS011;43621;51.798;21.588;2023-04-30T15:59:43;4.20;;;1.60;;
57790;SDS011;43621;51.798;21.588;2023-04-30T16:03:45;5.90;;;1.50;;
57790;SDS011;43621;51.798;21.588;2023-04-30T16:07:46;6.40;;;1.90;;
57790;SDS011;43621;51.798;21.588;2023-04-30T16:11:47;7.50;;;4.20;;
57790;SDS011;43621;51.798;21.588;2023-04-30T16:15:50;3.60;;;1.80;;
57790;SDS011;43621;51.798;21.588;2023-04-30T16:19:51;12.50;;;5.60;;
57790;SDS011;43621;51.798;21.588;2023-04-30T16:23:52;6.40;;;3.30;;
57790;SDS011;43621;51.798;21.588;2023-04-30T16:27:53;19.10;;;9.70;;
57790;SDS011;43621;51.798;21.588;2023-04-30T16:31:56;7.70;;;4.10;;
57790;SDS011;43621;51.798;21.588;2023-04-30T16:35:57;12.60;;;7.50;;
57790;SDS011;43621;51.798;21.588;2023-04-30T16:39:59;3.60;;;2.20;;
57790;SDS011;43621;51.798;21.588;2023-04-30T16:44:01;13.40;;;6.30;;
57790;SDS011;43621;51.798;21.588;2023-04-30T16:48:02;4.50;;;2.40;;
57790;SDS011;43621;51.798;21.588;2023-04-30T16:52:03;10.90;;;7.80;;
57790;SDS011;43621;51.798;21.588;2023-04-30T16:56:06;8.40;;;4.00;;
57790;SDS011;43621;51.798;21.588;2023-04-30T17:00:08;5.60;;;2.70;;
57790;SDS011;43621;51.798;21.588;2023-04-30T17:04:11;3.10;;;1.70;;
57790;SDS011;43621;51.798;21.588;2023-04-30T17:08:13;6.10;;;2.60;;
57790;SDS011;43621;51.798;21.588;2023-04-30T17:12:14;2.60;;;1.40;;
57790;SDS011;43621;51.798;21.588;2023-04-30T17:16:15;4.00;;;2.20;;
57790;SDS011;43621;51.798;21.588;2023-04-30T17:20:17;3.30;;;1.30;;
57790;SDS011;43621;51.798;21.588;2023-04-30T17:24:18;5.20;;;1.40;;
57790;SDS011;43621;51.798;21.588;2023-04-30T17:28:19;5.70;;;1.70;;
57790;SDS011;43621;51.798;21.588;2023-04-30T17:32:20;6.00;;;1.90;;
57790;SDS011;43621;51.798;21.588;2023-04-30T17:36:21;4.70;;;2.10;;
57790;SDS011;43621;51.798;21.588;2023-04-30T17:40:23;5.40;;;1.80;;
57790;SDS011;43621;51.798;21.588;2023-04-30T17:44:24;14.10;;;5.00;;
57790;SDS011;43621;51.798;21.588;2023-04-30T17:48:25;7.20;;;3.60;;
57790;SDS011;43621;51.798;21.588;2023-04-30T17:52:27;61.00;;;47.10;;
57790;SDS011;43621;51.798;21.588;2023-04-30T17:56:28;31.00;;;26.70;;
57790;SDS011;43621;51.798;21.588;2023-04-30T18:00:31;13.70;;;11.90;;
57790;SDS011;43621;51.798;21.588;2023-04-30T18:04:34;8.00;;;5.80;;
57790;SDS011;43621;51.798;21.588;2023-04-30T18:08:35;5.00;;;3.90;;
57790;SDS011;43621;51.798;21.588;2023-04-30T18:12:36;4.40;;;2.60;;
57790;SDS011;43621;51.798;21.588;2023-04-30T18:16:38;30.10;;;18.60;;
57790;SDS011;43621;51.798;21.588;2023-04-30T18:20:39;57.50;;;35.20;;
57790;SDS011;43621;51.798;21.588;2023-04-30T18:24:40;56.10;;;35.10;;
57790;SDS011;43621;51.798;21.588;2023-04-30T18:28:42;57.00;;;33.40;;
57790;SDS011;43621;51.798;21.588;2023-04-30T18:32:43;60.00;;;34.80;;
57790;SDS011;43621;51.798;21.588;2023-04-30T18:36:44;50.70;;;38.20;;
57790;SDS011;43621;51.798;21.588;2023-04-30T18:40:45;38.70;;;28.70;;
57790;SDS011;43621;51.798;21.588;2023-04-30T18:44:46;25.00;;;18.40;;
57790;SDS011;43621;51.798;21.588;2023-04-30T18:48:47;210.90;;;78.30;;
57790;SDS011;43621;51.798;21.588;2023-04-30T18:52:49;235.30;;;88.40;;
57790;SDS011;43621;51.798;21.588;2023-04-30T18:56:50;125.30;;;54.30;;
57790;SDS011;43621;51.798;21.588;2023-04-30T19:00:55;71.30;;;30.80;;
57790;SDS011;43621;51.798;21.588;2023-04-30T19:04:57;47.40;;;19.50;;
57790;SDS011;43621;51.798;21.588;2023-04-30T19:08:58;158.90;;;59.90;;
57790;SDS011;43621;51.798;21.588;2023-04-30T19:13:00;82.40;;;35.80;;
57790;SDS011;43621;51.798;21.588;2023-04-30T19:17:02;66.30;;;29.90;;
57790;SDS011;43621;51.798;21.588;2023-04-30T19:21:05;44.70;;;18.90;;
57790;SDS011;43621;51.798;21.588;2023-04-30T19:25:07;31.90;;;14.50;;
57790;SDS011;43621;51.798;21.588;2023-04-30T19:29:08;65.90;;;31.50;;
57790;SDS011;43621;51.798;21.588;2023-04-30T19:33:09;38.80;;;18.40;;
57790;SDS011;43621;51.798;21.588;2023-04-30T19:37:12;24.10;;;12.60;;
57790;SDS011;43621;51.798;21.588;2023-04-30T19:41:13;43.20;;;23.80;;
57790;SDS011;43621;51.798;21.588;2023-04-30T19:45:14;47.50;;;24.50;;
57790;SDS011;43621;51.798;21.588;2023-04-30T19:49:15;87.20;;;41.60;;
57790;SDS011;43621;51.798;21.588;2023-04-30T19:53:17;44.40;;;22.70;;
57790;SDS011;43621;51.798;21.588;2023-04-30T19:57:20;16.70;;;9.70;;
57790;SDS011;43621;51.798;21.588;2023-04-30T20:01:22;16.50;;;6.20;;
57790;SDS011;43621;51.798;21.588;2023-04-30T20:05:23;10.60;;;6.10;;
57790;SDS011;43621;51.798;21.588;2023-04-30T20:09:24;20.60;;;7.30;;
57790;SDS011;43621;51.798;21.588;2023-04-30T20:13:26;17.30;;;8.00;;
57790;SDS011;43621;51.798;21.588;2023-04-30T20:17:27;16.60;;;7.90;;
57790;SDS011;43621;51.798;21.588;2023-04-30T20:21:28;21.60;;;12.10;;
57790;SDS011;43621;51.798;21.588;2023-04-30T20:25:30;20.10;;;8.30;;
57790;SDS011;43621;51.798;21.588;2023-04-30T20:29:31;17.90;;;9.10;;
57790;SDS011;43621;51.798;21.588;2023-04-30T20:33:32;16.10;;;6.70;;
57790;SDS011;43621;51.798;21.588;2023-04-30T20:37:34;11.90;;;5.40;;
57790;SDS011;43621;51.798;21.588;2023-04-30T20:41:38;14.30;;;6.70;;
57790;SDS011;43621;51.798;21.588;2023-04-30T20:45:39;19.50;;;8.30;;
57790;SDS011;43621;51.798;21.588;2023-04-30T20:49:43;23.30;;;8.60;;
57790;SDS011;43621;51.798;21.588;2023-04-30T20:53:45;22.40;;;8.40;;
57790;SDS011;43621;51.798;21.588;2023-04-30T20:57:46;22.20;;;8.50;;
57790;SDS011;43621;51.798;21.588;2023-04-30T21:01:47;18.50;;;6.50;;
57790;SDS011;43621;51.798;21.588;2023-04-30T21:05:48;14.90;;;5.20;;
57790;SDS011;43621;51.798;21.588;2023-04-30T21:09:49;11.20;;;5.50;;
57790;SDS011;43621;51.798;21.588;2023-04-30T21:13:51;10.60;;;4.40;;
57790;SDS011;43621;51.798;21.588;2023-04-30T21:17:52;8.00;;;4.30;;
57790;SDS011;43621;51.798;21.588;2023-04-30T21:21:53;9.30;;;4.80;;
57790;SDS011;43621;51.798;21.588;2023-04-30T21:25:56;22.20;;;7.10;;
57790;SDS011;43621;51.798;21.588;2023-04-30T21:29:57;17.70;;;6.80;;
57790;SDS011;43621;51.798;21.588;2023-04-30T21:33:58;15.60;;;6.60;;
57790;SDS011;43621;51.798;21.588;2023-04-30T21:38:00;14.90;;;6.50;;
57790;SDS011;43621;51.798;21.588;2023-04-30T21:42:01;17.80;;;5.70;;
57790;SDS011;43621;51.798;21.588;2023-04-30T21:46:04;30.00;;;10.40;;
57790;SDS011;43621;51.798;21.588;2023-04-30T21:50:05;19.90;;;7.60;;
57790;SDS011;43621;51.798;21.588;2023-04-30T21:54:07;17.80;;;7.20;;
57790;SDS011;43621;51.798;21.588;2023-04-30T21:58:08;18.30;;;7.30;;
57790;SDS011;43621;51.798;21.588;2023-04-30T22:02:09;16.10;;;6.60;;
57790;SDS011;43621;51.798;21.588;2023-04-30T22:06:10;14.80;;;6.50;;
57790;SDS011;43621;51.798;21.588;2023-04-30T22:10:12;11.80;;;5.20;;
57790;SDS011;43621;51.798;21.588;2023-04-30T22:14:15;50.70;;;15.50;;
57790;SDS011;43621;51.798;21.588;2023-04-30T22:18:17;31.30;;;10.00;;
57790;SDS011;43621;51.798;21.588;2023-04-30T22:22:18;13.80;;;5.80;;
57790;SDS011;43621;51.798;21.588;2023-04-30T22:26:19;12.10;;;5.30;;
57790;SDS011;43621;51.798;21.588;2023-04-30T22:30:21;10.90;;;4.80;;
57790;SDS011;43621;51.798;21.588;2023-04-30T22:34:22;151.50;;;48.40;;
57790;SDS011;43621;51.798;21.588;2023-04-30T22:38:23;29.00;;;11.70;;
57790;SDS011;43621;51.798;21.588;2023-04-30T22:42:25;103.90;;;36.80;;
57790;SDS011;43621;51.798;21.588;2023-04-30T22:46:26;22.00;;;9.10;;
57790;SDS011;43621;51.798;21.588;2023-04-30T22:50:28;29.10;;;10.60;;
57790;SDS011;43621;51.798;21.588;2023-04-30T22:54:30;14.80;;;6.90;;
57790;SDS011;43621;51.798;21.588;2023-04-30T22:58:31;64.10;;;26.30;;
57790;SDS011;43621;51.798;21.588;2023-04-30T23:02:33;56.30;;;21.80;;
57790;SDS011;43621;51.798;21.588;2023-04-30T23:06:34;46.20;;;17.70;;
57790;SDS011;43621;51.798;21.588;2023-04-30T23:10:35;43.00;;;17.10;;
57790;SDS011;43621;51.798;21.588;2023-04-30T23:14:37;31.80;;;12.60;;
57790;SDS011;43621;51.798;21.588;2023-04-30T23:18:38;37.60;;;15.50;;
57790;SDS011;43621;51.798;21.588;2023-04-30T23:22:39;21.00;;;9.30;;
57790;SDS011;43621;51.798;21.588;2023-04-30T23:26:40;24.60;;;11.10;;
57790;SDS011;43621;51.798;21.588;2023-04-30T23:30:41;32.70;;;13.70;;
57790;SDS011;43621;51.798;21.588;2023-04-30T23:34:44;33.20;;;14.20;;
57790;SDS011;43621;51.798;21.588;2023-04-30T23:38:46;38.80;;;16.90;;
57790;SDS011;43621;51.798;21.588;2023-04-30T23:42:47;40.20;;;17.00;;
57790;SDS011;43621;51.798;21.588;2023-04-30T23:46:48;41.70;;;18.00;;
57790;SDS011;43621;51.798;21.588;2023-04-30T23:51:00;26.50;;;11.00;;
57790;SDS011;43621;51.798;21.588;2023-04-30T23:55:02;23.30;;;11.90;;
57790;SDS011;43621;51.798;21.588;2023-04-30T23:59:04;22.60;;;10.70;;
